Archiv-/Tagesdaten

--Timestamp---	Temp	Chill	HIndex	Humid	Dewpt	 Wind 	HiWind	WindDir	Rain 	Barom	Solar	 ET  	 UV 
--------------	----	-----	------	-----	-----	------	------	-------	-----	-----	-----	-----	----
20110801 00:00	11.8	11.8	11.8	88	9.9	0	0	-100000	0.0	1016.0	0	0.000	0.0
20110801 00:05	11.7	11.7	11.7	88	9.8	0	0	-100000	0.0	1015.8	0	0.000	0.0
20110801 00:10	11.7	11.7	11.7	88	9.7	0	0	-100000	0.0	1015.9	0	0.000	0.0
20110801 00:15	11.6	11.6	11.6	88	9.7	0	0	-100000	0.0	1015.9	0	0.000	0.0
20110801 00:20	11.6	11.6	11.6	88	9.6	0	0	-100000	0.0	1015.9	0	0.000	0.0
20110801 00:25	11.6	11.6	11.6	88	9.6	0	0	-100000	0.0	1015.9	0	0.000	0.0
20110801 00:30	11.4	11.4	11.4	88	9.5	0	0	-100000	0.0	1015.9	0	0.000	0.0
20110801 00:35	11.4	11.4	11.4	88	9.5	0	0	-100000	0.0	1015.9	0	0.000	0.0
20110801 00:40	11.4	11.4	11.4	89	9.6	0	0	-100000	0.0	1015.9	0	0.000	0.0
20110801 00:45	11.3	11.3	11.3	89	9.6	0	0	-100000	0.0	1016.0	0	0.000	0.0
20110801 00:50	11.3	11.3	11.3	89	9.6	0	0	-100000	0.0	1016.0	0	0.000	0.0
20110801 00:55	11.3	11.3	11.3	89	9.6	0	0	-100000	0.0	1016.1	0	0.000	0.0
20110801 01:00	11.3	11.3	11.3	89	9.5	0	0	-100000	0.0	1016.1	0	0.000	0.0
20110801 01:05	11.3	11.3	11.3	89	9.6	0	0	-100000	0.0	1016.0	0	0.000	0.0
20110801 01:10	11.3	11.3	11.3	89	9.6	0	0	-100000	0.0	1015.9	0	0.000	0.0
20110801 01:15	11.3	11.3	11.3	89	9.5	0	0	-100000	0.0	1015.9	0	0.000	0.0
20110801 01:20	11.2	11.2	11.2	89	9.5	0	0	-100000	0.0	1015.9	0	0.000	0.0
20110801 01:25	11.2	11.2	11.2	89	9.4	0	0	-100000	0.0	1015.9	0	0.000	0.0
20110801 01:30	11.1	11.1	11.1	89	9.4	0	0	-100000	0.0	1015.8	0	0.000	0.0
20110801 01:35	11.1	11.1	11.1	89	9.3	0	0	-100000	0.0	1015.9	0	0.000	0.0
20110801 01:40	11.1	11.1	11.1	90	9.5	0	0	-100000	0.0	1015.9	0	0.000	0.0
20110801 01:45	11.1	11.1	11.1	90	9.5	0	0	-100000	0.0	1015.9	0	0.000	0.0
20110801 01:50	11.1	11.1	11.1	90	9.5	0	0	-100000	0.0	1015.9	0	0.000	0.0
20110801 01:55	11.2	11.2	11.2	90	9.6	0	0	-100000	0.0	1016.0	0	0.000	0.0
20110801 02:00	11.2	11.2	11.2	90	9.6	0	0	-100000	0.0	1015.9	0	0.000	0.0
20110801 02:05	11.3	11.3	11.3	90	9.7	0	0	-100000	0.0	1015.9	0	0.000	0.0
20110801 02:10	11.3	11.3	11.3	90	9.7	0	2	45	0.0	1015.9	0	0.000	0.0
20110801 02:15	11.3	11.3	11.3	90	9.7	0	0	-100000	0.0	1015.8	0	0.000	0.0
20110801 02:20	11.3	11.3	11.3	90	9.7	0	2	45	0.0	1015.8	0	0.000	0.0
20110801 02:25	11.3	11.3	11.3	90	9.8	3	6	45	0.0	1015.8	0	0.000	0.0
20110801 02:30	11.4	11.4	11.4	90	9.8	3	6	45	0.0	1015.7	0	0.000	0.0
20110801 02:35	11.5	11.5	11.5	89	9.7	2	5	45	0.0	1015.7	0	0.000	0.0
20110801 02:40	11.6	11.6	11.6	89	9.8	0	3	45	0.0	1015.6	0	0.000	0.0
20110801 02:45	11.7	11.7	11.7	89	9.9	0	2	45	0.0	1015.6	0	0.000	0.0
20110801 02:50	11.7	11.7	11.7	89	10.0	0	0	-100000	0.0	1015.6	0	0.000	0.0
20110801 02:55	11.8	11.8	11.8	89	10.0	0	0	-100000	0.0	1015.6	0	0.000	0.0
20110801 03:00	11.8	11.8	11.8	92	10.5	0	0	-100000	0.0	1015.6	0	0.000	0.0
20110801 03:05	11.8	11.8	11.8	88	9.9	0	0	-100000	0.0	1015.4	0	0.000	0.0
20110801 03:10	11.8	11.8	11.8	88	9.9	0	0	-100000	0.0	1015.3	0	0.000	0.0
20110801 03:15	11.8	11.8	11.8	87	9.7	0	0	-100000	0.0	1015.3	0	0.000	0.0
20110801 03:20	11.8	11.8	11.8	87	9.7	0	0	-100000	0.0	1015.3	0	0.000	0.0
20110801 03:25	11.8	11.8	11.8	87	9.7	0	0	-100000	0.0	1015.4	0	0.000	0.0
20110801 03:30	11.9	11.9	11.9	87	9.8	0	0	-100000	0.0	1015.3	0	0.000	0.0
20110801 03:35	11.9	11.9	11.9	87	9.8	0	0	-100000	0.0	1015.3	0	0.000	0.0
20110801 03:40	11.9	11.9	11.9	87	9.8	0	2	45	0.0	1015.3	0	0.000	0.0
20110801 03:45	11.9	11.9	11.9	87	9.8	0	0	-100000	0.0	1015.3	0	0.000	0.0
20110801 03:50	12.0	12.0	12.0	87	9.9	0	0	-100000	0.0	1015.2	0	0.000	0.0
20110801 03:55	11.9	11.9	11.9	87	9.8	0	0	-100000	0.0	1015.3	0	0.000	0.0
20110801 04:00	11.9	11.9	11.9	87	9.8	0	2	45	0.0	1015.2	0	0.000	0.0
20110801 04:05	11.9	11.9	11.9	87	9.8	0	0	-100000	0.0	1015.2	0	0.000	0.0
20110801 04:10	12.0	12.0	12.0	87	9.9	0	0	-100000	0.0	1015.2	0	0.000	0.0
20110801 04:15	12.0	12.0	12.0	87	9.9	0	2	45	0.0	1015.2	0	0.000	0.0
20110801 04:20	11.9	11.9	11.9	87	9.8	0	2	45	0.0	1015.2	0	0.000	0.0
20110801 04:25	11.9	11.9	11.9	87	9.8	0	5	45	0.0	1015.2	0	0.000	0.0
20110801 04:30	11.9	11.9	11.9	87	9.8	2	5	45	0.0	1015.2	0	0.000	0.0
20110801 04:35	11.9	11.9	11.9	87	9.8	0	2	45	0.0	1015.1	0	0.000	0.0
20110801 04:40	11.9	11.9	11.9	87	9.8	2	5	45	0.0	1015.2	0	0.000	0.0
20110801 04:45	11.9	11.9	11.9	87	9.8	0	2	45	0.0	1015.2	0	0.000	0.0
20110801 04:50	11.9	11.9	11.9	87	9.8	0	3	45	0.0	1015.1	0	0.000	0.0
20110801 04:55	12.0	12.0	12.0	88	10.1	0	0	-100000	0.0	1015.2	0	0.000	0.0
20110801 05:00	12.0	12.0	12.0	88	10.1	0	0	-100000	0.0	1015.2	0	0.000	0.0
20110801 05:05	11.9	11.9	11.9	88	10.0	0	0	-100000	0.0	1015.2	0	0.000	0.0
20110801 05:10	11.9	11.9	11.9	87	9.8	0	0	-100000	0.0	1015.2	0	0.000	0.0
20110801 05:15	11.9	11.9	11.9	88	10.0	0	2	45	0.0	1015.1	0	0.000	0.0
20110801 05:20	11.9	11.9	11.9	88	10.0	0	0	-100000	0.0	1015.1	0	0.000	0.0
20110801 05:25	11.9	11.9	11.9	88	10.0	0	0	-100000	0.0	1015.2	0	0.000	0.0
20110801 05:30	12.0	12.0	12.0	88	10.1	0	0	-100000	0.0	1015.1	0	0.000	0.0
20110801 05:35	12.0	12.0	12.0	88	10.1	0	0	-100000	0.0	1015.1	0	0.000	0.0
20110801 05:40	11.9	11.9	11.9	88	10.0	0	0	-100000	0.0	1015.2	0	0.000	0.0
20110801 05:45	11.9	11.9	11.9	87	9.8	0	2	45	0.0	1015.3	0	0.000	0.0
20110801 05:50	11.9	11.9	11.9	87	9.8	2	5	45	0.0	1015.3	0	0.000	0.0
20110801 05:55	11.9	11.9	11.9	88	10.0	0	5	45	0.0	1015.3	0	0.000	0.0
20110801 06:00	11.9	11.9	11.9	88	10.0	0	2	45	0.0	1015.3	0	0.000	0.0
20110801 06:05	11.9	11.9	11.9	88	10.0	0	2	45	0.0	1015.4	0	0.000	0.0
20110801 06:10	11.9	11.9	11.9	88	10.0	0	0	-100000	0.0	1015.5	0	0.000	0.0
20110801 06:15	11.8	11.8	11.8	88	9.9	2	5	45	0.0	1015.5	0	0.000	0.0
20110801 06:20	11.8	11.8	11.8	88	9.9	0	5	45	0.0	1015.5	0	0.000	0.0
20110801 06:25	11.8	11.8	11.8	87	9.7	0	2	45	0.0	1015.6	0	0.000	0.0
20110801 06:30	11.8	11.8	11.8	87	9.7	0	3	45	0.0	1015.6	1	0.000	0.0
20110801 06:35	11.8	11.8	11.8	87	9.7	0	2	45	0.0	1015.6	6	0.000	0.0
20110801 06:40	11.8	11.8	11.8	88	9.9	0	3	45	0.0	1015.5	10	0.000	0.0
20110801 06:45	11.8	11.8	11.8	88	9.9	2	5	45	0.0	1015.6	10	0.000	0.0
20110801 06:50	11.8	11.8	11.8	88	9.9	0	5	45	0.0	1015.6	10	0.000	0.0
20110801 06:55	11.8	11.8	11.8	88	9.9	0	5	45	0.0	1015.6	12	0.000	0.0
20110801 07:00	11.9	11.9	11.9	88	10.0	0	5	68	0.0	1015.6	16	0.000	0.0
20110801 07:05	11.8	11.8	11.8	88	9.9	2	5	180	0.0	1015.7	19	0.000	0.0
20110801 07:10	11.8	11.8	11.8	88	9.9	0	5	202	0.0	1015.9	22	0.000	0.0
20110801 07:15	11.8	11.8	11.8	88	9.9	0	3	202	0.0	1015.9	23	0.000	0.0
20110801 07:20	11.8	11.8	11.8	88	9.9	0	2	202	0.0	1015.9	27	0.000	0.0
20110801 07:25	11.8	11.8	11.8	88	9.9	0	2	202	0.0	1015.9	30	0.000	0.0
20110801 07:30	11.8	11.8	11.8	88	9.9	0	2	202	0.0	1015.9	33	0.000	0.0
20110801 07:35	11.8	11.8	11.8	87	9.7	0	0	-100000	0.0	1015.9	38	0.000	0.0
20110801 07:40	11.9	11.9	11.9	87	9.8	0	5	202	0.0	1015.9	42	0.000	0.0
20110801 07:45	11.8	11.8	11.8	87	9.7	0	2	112	0.0	1015.9	43	0.000	0.0
20110801 07:50	11.9	11.9	11.9	87	9.8	0	0	-100000	0.0	1015.9	46	0.000	0.0
20110801 07:55	11.9	11.9	11.9	87	9.8	0	3	158	0.0	1016.0	46	0.000	0.0
20110801 08:00	12.0	12.0	12.0	87	9.9	2	3	225	0.0	1016.0	47	0.025	0.0
20110801 08:05	12.0	12.0	12.0	87	9.9	2	5	202	0.0	1016.1	45	0.000	0.0
20110801 08:10	12.0	12.0	12.0	87	9.9	3	6	45	0.0	1016.2	46	0.000	0.0
20110801 08:15	12.0	12.0	12.0	87	9.9	2	5	45	0.0	1016.2	53	0.000	0.0
20110801 08:20	12.0	12.0	12.0	87	9.9	0	6	135	0.0	1016.3	54	0.000	0.0
20110801 08:25	12.0	12.0	12.0	87	9.9	2	5	135	0.0	1016.3	55	0.000	0.0
20110801 08:30	12.0	12.0	12.0	87	9.9	2	5	135	0.0	1016.3	57	0.000	0.0
20110801 08:35	12.1	12.1	12.1	87	10.0	0	3	135	0.0	1016.3	61	0.000	0.0
20110801 08:40	12.1	12.1	12.1	87	10.0	2	6	135	0.0	1016.3	63	0.000	0.0
20110801 08:45	12.1	12.1	12.1	88	10.2	2	6	68	0.0	1016.3	65	0.000	0.0
20110801 08:50	12.2	12.2	12.2	88	10.2	2	6	68	0.0	1016.3	67	0.000	0.0
20110801 08:55	12.2	12.2	12.2	87	10.1	3	6	68	0.0	1016.3	69	0.000	0.0
20110801 09:00	12.2	12.2	12.2	87	10.1	3	5	68	0.0	1016.3	73	0.025	0.5
20110801 09:05	12.2	12.2	12.2	88	10.2	2	6	68	0.0	1016.4	77	0.000	0.5
20110801 09:10	12.2	12.2	12.2	87	10.1	5	6	68	0.0	1016.5	82	0.000	0.6
20110801 09:15	12.1	12.1	12.1	87	10.0	2	6	68	0.0	1016.4	91	0.000	0.6
20110801 09:20	12.1	12.1	12.1	87	10.0	0	2	68	0.0	1016.4	96	0.000	0.7
20110801 09:25	12.2	12.2	12.2	87	10.1	0	2	68	0.0	1016.4	85	0.000	0.7
20110801 09:30	12.2	12.2	12.2	87	10.1	0	2	68	0.0	1016.4	87	0.000	0.7
20110801 09:35	12.3	12.3	12.3	87	10.2	0	5	68	0.0	1016.4	100	0.000	0.8
20110801 09:40	12.4	12.4	12.4	87	10.3	2	6	90	0.0	1016.3	95	0.000	0.8
20110801 09:45	12.4	12.4	12.4	87	10.3	0	5	90	0.0	1016.3	118	0.000	1.0
20110801 09:50	12.5	12.5	12.5	87	10.4	3	6	45	0.0	1016.2	141	0.000	1.1
20110801 09:55	12.6	12.6	12.6	87	10.4	3	6	90	0.0	1016.3	148	0.000	1.2
20110801 10:00	12.6	12.6	12.6	86	10.3	2	5	90	0.0	1016.3	157	0.051	1.2
20110801 10:05	12.6	12.6	12.6	86	10.3	2	5	90	0.0	1016.3	168	0.000	1.4
20110801 10:10	12.7	12.7	12.7	86	10.4	2	8	112	0.0	1016.2	177	0.000	1.4
20110801 10:15	12.8	12.8	12.8	86	10.5	5	10	135	0.0	1016.3	181	0.000	1.5
20110801 10:20	12.8	12.8	12.8	85	10.3	3	6	158	0.0	1016.3	189	0.000	1.5
20110801 10:25	12.8	12.8	12.8	85	10.4	2	6	158	0.0	1016.3	181	0.000	1.5
20110801 10:30	12.8	12.8	12.8	85	10.4	2	5	158	0.0	1016.3	175	0.000	1.6
20110801 10:35	12.9	12.9	12.9	85	10.5	2	5	158	0.0	1016.3	186	0.000	1.7
20110801 10:40	13.1	13.1	13.1	85	10.6	2	5	135	0.0	1016.3	190	0.000	1.7
20110801 10:45	13.2	13.2	13.2	85	10.7	5	8	68	0.0	1016.3	195	0.000	1.8
20110801 10:50	13.2	13.2	13.2	85	10.7	2	8	68	0.0	1016.3	202	0.000	1.9
20110801 10:55	13.2	13.2	13.2	85	10.7	2	5	45	0.0	1016.3	196	0.000	1.8
20110801 11:00	13.3	13.3	13.3	85	10.8	3	8	45	0.0	1016.2	197	0.102	1.9
20110801 11:05	13.2	13.2	13.2	84	10.6	3	8	22	0.0	1016.4	216	0.000	2.1
20110801 11:10	13.3	13.3	13.3	84	10.6	2	8	90	0.0	1016.5	223	0.000	2.1
20110801 11:15	13.3	13.3	13.3	84	10.7	0	3	90	0.0	1016.5	210	0.000	2.0
20110801 11:20	13.4	13.4	13.4	84	10.8	0	6	158	0.0	1016.5	196	0.000	1.9
20110801 11:25	13.6	13.6	13.6	84	10.9	3	8	90	0.0	1016.5	195	0.000	1.9
20110801 11:30	13.6	13.6	13.6	84	11.0	2	6	112	0.0	1016.5	207	0.000	2.1
20110801 11:35	13.7	13.7	13.7	83	10.8	2	6	135	0.0	1016.4	202	0.000	2.0
20110801 11:40	13.8	13.8	13.8	84	11.1	2	6	135	0.0	1016.5	202	0.000	2.0
20110801 11:45	13.8	13.8	13.8	83	11.0	3	8	68	0.0	1016.4	214	0.000	2.2
20110801 11:50	13.8	13.8	13.8	83	10.9	5	8	45	0.0	1016.4	220	0.000	2.3
20110801 11:55	13.8	13.8	13.8	84	11.1	0	3	45	0.0	1016.4	217	0.000	2.3
20110801 12:00	13.8	13.8	13.8	84	11.2	3	6	68	0.0	1016.4	210	0.000	2.2
20110801 12:05	13.9	13.9	13.9	84	11.2	3	5	68	0.0	1016.6	215	0.102	2.2
20110801 12:10	13.9	13.9	13.9	83	11.1	3	8	45	0.0	1016.6	230	0.000	2.4
20110801 12:15	14.0	14.0	14.0	83	11.2	5	8	45	0.0	1016.6	255	0.000	2.7
20110801 12:20	14.1	14.1	14.1	83	11.2	5	8	45	0.0	1016.6	287	0.000	3.0
20110801 12:25	14.2	14.2	14.2	82	11.2	5	8	68	0.0	1016.4	331	0.000	3.5
20110801 12:30	14.3	14.3	14.3	82	11.3	2	6	68	0.0	1016.5	369	0.000	4.0
20110801 12:35	14.5	14.5	14.5	81	11.3	0	5	68	0.0	1016.4	385	0.000	4.1
20110801 12:40	14.8	14.8	14.8	81	11.5	2	6	68	0.0	1016.4	385	0.000	4.1
20110801 12:45	15.0	15.0	15.0	80	11.6	2	6	68	0.0	1016.4	417	0.000	4.4
20110801 12:50	15.1	15.1	15.1	80	11.6	3	6	90	0.0	1016.3	431	0.000	4.6
20110801 12:55	15.3	15.3	15.3	80	11.9	2	5	90	0.0	1016.2	454	0.000	4.8
20110801 13:00	15.6	15.6	15.6	78	11.7	3	10	90	0.0	1016.2	446	0.178	4.9
20110801 13:05	15.6	15.6	15.6	78	11.7	5	8	45	0.0	1016.1	430	0.000	5.1
20110801 13:10	15.7	15.7	15.7	78	11.8	3	8	90	0.0	1016.1	446	0.000	5.3
20110801 13:15	15.9	15.9	15.9	77	11.9	5	8	135	0.0	1016.1	571	0.000	6.3
20110801 13:20	16.2	16.2	16.2	77	12.2	5	10	90	0.0	1016.1	446	0.000	5.0
20110801 13:25	16.3	16.3	16.3	76	12.0	6	14	22	0.0	1016.1	401	0.000	5.0
20110801 13:30	16.3	16.3	16.3	76	12.1	2	6	68	0.0	1016.1	613	0.000	6.7
20110801 13:35	16.8	16.8	16.8	76	12.6	2	5	68	0.0	1015.8	851	0.000	7.5
20110801 13:40	17.3	17.3	17.3	74	12.6	3	11	68	0.0	1015.9	569	0.000	5.6
20110801 13:45	17.3	17.3	17.3	73	12.4	5	11	45	0.0	1015.8	453	0.000	6.0
20110801 13:50	17.2	17.2	17.2	73	12.3	6	13	22	0.0	1015.8	748	0.000	7.3
20110801 13:55	17.2	17.2	17.2	74	12.5	3	8	0	0.0	1015.8	607	0.000	6.9
20110801 14:00	17.4	17.4	17.4	74	12.7	3	8	22	0.0	1015.6	923	0.356	8.1
20110801 14:05	17.7	17.7	17.7	72	12.6	3	8	45	0.0	1015.5	755	0.000	7.4
20110801 14:10	17.7	17.7	17.7	72	12.6	6	11	45	0.0	1015.5	718	0.000	6.9
20110801 14:15	17.7	17.7	17.7	72	12.6	3	10	90	0.0	1015.4	870	0.000	7.8
20110801 14:20	17.9	17.9	17.9	73	13.0	5	10	68	0.0	1015.4	845	0.000	7.7
20110801 14:25	18.2	18.2	18.2	71	12.8	2	8	22	0.0	1015.3	849	0.000	7.4
20110801 14:30	18.3	18.3	18.3	70	12.7	3	8	68	0.0	1015.3	869	0.000	6.3
20110801 14:35	18.3	18.3	18.3	70	12.8	5	10	68	0.0	1015.4	735	0.000	6.7
20110801 14:40	18.4	18.4	18.4	70	12.9	2	6	90	0.0	1015.3	888	0.000	7.1
20110801 14:45	18.8	18.8	18.8	69	13.0	2	6	90	0.0	1015.3	891	0.000	7.1
20110801 14:50	19.0	19.0	19.0	68	13.0	3	10	68	0.0	1015.3	371	0.000	5.0
20110801 14:55	18.9	18.9	18.9	67	12.6	2	8	68	0.0	1015.2	828	0.000	6.7
20110801 15:00	19.1	19.1	19.1	68	13.0	3	8	68	0.0	1015.2	806	0.432	6.8
20110801 15:05	19.3	19.3	19.3	68	13.2	3	10	68	0.0	1015.0	671	0.000	5.7
20110801 15:10	19.6	19.6	19.6	67	13.3	3	6	338	0.0	1014.9	810	0.000	6.6
20110801 15:15	19.8	19.8	19.8	65	13.0	5	16	45	0.0	1014.8	535	0.000	5.6
20110801 15:20	19.6	19.6	19.6	64	12.6	6	11	90	0.0	1014.9	577	0.000	5.7
20110801 15:25	19.5	19.5	19.5	65	12.7	2	6	68	0.0	1014.8	761	0.000	6.0
20110801 15:30	19.7	19.7	19.7	67	13.4	6	10	45	0.0	1014.8	746	0.000	5.8
20110801 15:35	19.9	19.9	19.9	66	13.4	2	5	112	0.0	1014.6	716	0.000	5.6
20110801 15:40	20.2	20.2	20.2	65	13.4	6	14	112	0.0	1014.5	713	0.000	5.5
20110801 15:45	20.1	20.1	20.1	66	13.5	6	18	45	0.0	1014.5	456	0.000	4.9
20110801 15:50	20.1	20.1	20.1	65	13.3	8	16	68	0.0	1014.5	752	0.000	5.0
20110801 15:55	20.1	20.1	20.1	65	13.3	5	10	90	0.0	1014.6	467	0.000	4.2
20110801 16:00	20.2	20.2	20.2	67	13.9	5	10	90	0.0	1014.4	723	0.406	5.0
20110801 16:05	20.4	20.4	20.4	64	13.4	2	8	45	0.0	1014.4	755	0.000	4.9
20110801 16:10	20.6	20.6	20.6	63	13.3	5	16	68	0.0	1014.5	616	0.000	4.1
20110801 16:15	20.4	20.4	20.4	65	13.6	3	6	112	0.0	1014.4	342	0.000	3.5
20110801 16:20	20.6	20.6	20.6	64	13.6	5	10	112	0.0	1014.4	748	0.000	4.4
20110801 16:25	20.7	20.7	20.7	64	13.7	8	16	45	0.0	1014.4	493	0.000	3.3
20110801 16:30	20.6	20.6	20.6	64	13.5	8	14	45	0.0	1014.5	429	0.000	3.1
20110801 16:35	20.6	20.6	20.6	64	13.6	8	14	68	0.0	1014.4	485	0.000	3.0
20110801 16:40	20.6	20.6	20.6	64	13.5	2	6	90	0.0	1014.4	622	0.000	3.6
20110801 16:45	20.8	20.8	20.8	65	14.0	8	18	68	0.0	1014.3	573	0.000	3.1
20110801 16:50	20.7	20.7	20.7	63	13.4	5	10	68	0.0	1014.4	153	0.000	2.4
20110801 16:55	20.7	20.7	20.7	63	13.4	5	11	45	0.0	1014.3	613	0.000	3.2
20110801 17:00	20.9	20.9	20.9	63	13.6	8	18	45	0.0	1014.2	639	0.330	3.1
20110801 17:05	21.1	21.1	21.1	64	14.0	6	11	45	0.0	1014.3	626	0.000	2.6
20110801 17:10	21.2	21.2	21.2	62	13.6	6	14	112	0.0	1014.3	592	0.000	2.4
20110801 17:15	21.2	21.2	21.2	62	13.6	6	14	90	0.0	1014.3	159	0.000	1.7
20110801 17:20	20.8	20.8	20.8	63	13.5	6	10	90	0.0	1014.3	195	0.000	1.8
20110801 17:25	20.6	20.6	20.6	65	13.8	3	10	90	0.0	1014.3	282	0.000	2.0
20110801 17:30	20.8	20.8	20.8	65	14.0	5	11	90	0.0	1014.3	441	0.000	2.0
20110801 17:35	20.9	20.9	20.9	63	13.6	8	11	68	0.0	1014.3	463	0.000	1.8
20110801 17:40	20.6	20.6	20.6	63	13.3	5	10	68	0.0	1014.3	121	0.000	1.4
20110801 17:45	20.6	20.6	20.6	64	13.5	3	8	90	0.0	1014.3	438	0.000	1.8
20110801 17:50	20.9	20.9	20.9	64	13.8	8	16	68	0.0	1014.2	525	0.000	1.7
20110801 17:55	21.0	21.0	21.0	63	13.7	8	16	68	0.0	1014.2	331	0.000	1.4
20110801 18:00	20.8	20.8	20.8	63	13.5	6	14	135	0.0	1014.2	325	0.254	1.4
20110801 18:05	20.8	20.8	20.8	64	13.8	5	11	112	0.0	1014.2	369	0.000	1.4
20110801 18:10	20.9	20.9	20.9	64	13.8	5	11	112	0.0	1014.2	367	0.000	1.3
20110801 18:15	20.9	20.9	20.9	63	13.6	3	10	68	0.0	1014.1	259	0.000	1.2
20110801 18:20	20.8	20.8	20.8	63	13.5	5	11	68	0.0	1014.2	263	0.000	1.1
20110801 18:25	20.9	20.9	20.9	64	13.8	5	18	68	0.0	1014.1	380	0.000	1.1
20110801 18:30	20.9	20.9	20.9	63	13.6	8	16	90	0.0	1014.2	320	0.000	0.9
20110801 18:35	20.7	20.7	20.7	64	13.6	8	16	90	0.0	1014.2	128	0.000	0.7
20110801 18:40	20.3	20.3	20.3	66	13.7	3	8	112	0.0	1014.3	70	0.000	0.7
20110801 18:45	20.0	20.0	20.0	67	13.7	3	8	112	0.0	1014.4	85	0.000	0.7
20110801 18:50	19.9	19.9	19.9	67	13.6	3	8	135	0.0	1014.4	217	0.000	0.7
20110801 18:55	20.0	20.0	20.0	66	13.4	5	13	68	0.0	1014.4	250	0.000	0.7
20110801 19:00	20.1	20.1	20.1	67	13.8	8	11	68	0.0	1014.5	236	0.178	0.6
20110801 19:05	20.2	20.2	20.2	66	13.7	5	10	90	0.0	1014.3	218	0.000	0.5
20110801 19:10	20.2	20.2	20.2	65	13.4	5	10	90	0.0	1014.3	185	0.000	0.5
20110801 19:15	20.0	20.0	20.0	66	13.4	6	11	90	0.0	1014.3	88	0.000	0.2
20110801 19:20	19.9	19.9	19.9	67	13.6	5	10	90	0.0	1014.3	58	0.000	0.0
20110801 19:25	19.8	19.8	19.8	68	13.7	5	10	90	0.0	1014.3	54	0.000	0.0
20110801 19:30	19.7	19.7	19.7	68	13.6	6	11	90	0.0	1014.3	50	0.000	0.0
20110801 19:35	19.6	19.6	19.6	68	13.5	5	11	112	0.0	1014.5	47	0.000	0.0
20110801 19:40	19.5	19.5	19.5	68	13.4	3	6	90	0.0	1014.6	44	0.000	0.0
20110801 19:45	19.4	19.4	19.4	69	13.5	5	11	112	0.0	1014.5	41	0.000	0.0
20110801 19:50	19.2	19.2	19.2	70	13.6	5	11	90	0.0	1014.5	38	0.000	0.0
20110801 19:55	19.1	19.1	19.1	70	13.5	3	10	90	0.0	1014.6	36	0.000	0.0
20110801 20:00	19.0	19.0	19.0	70	13.4	3	10	90	0.0	1014.7	33	0.076	0.0
20110801 20:05	18.8	18.8	18.8	71	13.5	2	6	112	0.0	1014.7	30	0.000	0.0
20110801 20:10	18.7	18.7	18.7	71	13.4	3	6	90	0.0	1014.7	27	0.000	0.0
20110801 20:15	18.6	18.6	18.6	71	13.2	2	6	90	0.0	1014.7	23	0.000	0.0
20110801 20:20	18.4	18.4	18.4	72	13.3	2	6	90	0.0	1014.9	19	0.000	0.0
20110801 20:25	18.3	18.3	18.3	72	13.2	0	6	90	0.0	1014.9	16	0.000	0.0
20110801 20:30	18.2	18.2	18.2	73	13.2	0	3	90	0.0	1014.9	13	0.000	0.0
20110801 20:35	18.1	18.1	18.1	74	13.3	0	2	90	0.0	1015.0	10	0.000	0.0
20110801 20:40	17.9	17.9	17.9	74	13.2	0	2	90	0.0	1015.1	-100000	0.000	0.0
20110801 20:45	17.8	17.8	17.8	74	13.1	0	2	90	0.0	1015.1	5	0.000	0.0
20110801 20:50	17.7	17.7	17.7	75	13.2	0	5	90	0.0	1015.1	2	0.000	0.0
20110801 20:55	17.5	17.5	17.5	75	13.0	0	3	90	0.0	1015.2	0	0.000	0.0
20110801 21:00	17.4	17.4	17.4	76	13.1	0	3	90	0.0	1015.3	0	0.025	0.0
20110801 21:05	17.2	17.2	17.2	77	13.2	0	2	90	0.0	1015.3	0	0.000	0.0
20110801 21:10	17.1	17.1	17.1	77	13.0	0	2	90	0.0	1015.3	0	0.000	0.0
20110801 21:15	16.9	16.9	16.9	78	13.1	0	0	-100000	0.0	1015.5	0	0.000	0.0
20110801 21:20	16.8	16.8	16.8	78	12.9	0	0	-100000	0.0	1015.6	0	0.000	0.0
20110801 21:25	16.6	16.6	16.6	79	13.0	0	2	90	0.0	1015.7	0	0.000	0.0
20110801 21:30	16.5	16.5	16.5	80	13.0	0	2	90	0.0	1015.8	0	0.000	0.0
20110801 21:35	16.3	16.3	16.3	80	12.9	0	0	-100000	0.0	1015.7	0	0.000	0.0
20110801 21:40	16.2	16.2	16.2	80	12.7	0	2	90	0.0	1015.8	0	0.000	0.0
20110801 21:45	16.0	16.0	16.0	81	12.7	0	0	-100000	0.0	1015.8	0	0.000	0.0
20110801 21:50	15.8	15.8	15.8	82	12.8	0	0	-100000	0.0	1015.8	0	0.000	0.0
20110801 21:55	15.7	15.7	15.7	82	12.6	0	2	90	0.0	1016.0	0	0.000	0.0
20110801 22:00	15.6	15.6	15.6	83	12.7	0	2	90	0.0	1015.9	0	0.000	0.0
20110801 22:05	15.4	15.4	15.4	83	12.6	0	3	90	0.0	1015.9	0	0.000	0.0
20110801 22:10	15.4	15.4	15.4	83	12.5	0	0	-100000	0.0	1015.9	0	0.000	0.0
20110801 22:15	15.3	15.3	15.3	83	12.4	0	0	-100000	0.0	1015.9	0	0.000	0.0
20110801 22:20	15.2	15.2	15.2	84	12.5	0	0	-100000	0.0	1016.1	0	0.000	0.0
20110801 22:25	15.0	15.0	15.0	84	12.3	0	0	-100000	0.0	1016.1	0	0.000	0.0
20110801 22:30	15.0	15.0	15.0	84	12.3	0	0	-100000	0.0	1016.1	0	0.000	0.0
20110801 22:35	14.8	14.8	14.8	85	12.3	0	0	-100000	0.0	1016.1	0	0.000	0.0
20110801 22:40	14.7	14.7	14.7	85	12.2	0	2	90	0.0	1016.1	0	0.000	0.0
20110801 22:45	14.7	14.7	14.7	85	12.2	0	0	-100000	0.0	1016.0	0	0.000	0.0
20110801 22:50	14.6	14.6	14.6	85	12.1	0	2	90	0.0	1016.0	0	0.000	0.0
20110801 22:55	14.6	14.6	14.6	86	12.2	0	0	-100000	0.0	1016.1	0	0.000	0.0
20110801 23:00	14.4	14.4	14.4	86	12.1	0	0	-100000	0.0	1016.2	0	0.000	0.0
20110801 23:05	14.4	14.4	14.4	86	12.1	0	0	-100000	0.0	1016.2	0	0.000	0.0
20110801 23:10	14.3	14.3	14.3	86	12.0	0	0	-100000	0.0	1016.2	0	0.000	0.0
20110801 23:15	14.2	14.2	14.2	86	11.9	0	0	-100000	0.0	1016.2	0	0.000	0.0
20110801 23:20	14.1	14.1	14.1	86	11.8	0	0	-100000	0.0	1016.2	0	0.000	0.0
20110801 23:25	14.0	14.0	14.0	86	11.7	0	0	-100000	0.0	1016.2	0	0.000	0.0
20110801 23:30	13.9	13.9	13.9	87	11.8	0	0	-100000	0.0	1016.3	0	0.000	0.0
20110801 23:35	13.8	13.8	13.8	87	11.6	0	0	-100000	0.0	1016.2	0	0.000	0.0
20110801 23:40	13.7	13.7	13.7	87	11.5	0	0	-100000	0.0	1016.2	0	0.000	0.0
20110801 23:45	13.6	13.6	13.6	87	11.4	0	2	90	0.0	1016.4	0	0.000	0.0
20110801 23:50	13.4	13.4	13.4	87	11.3	0	0	-100000	0.0	1016.4	0	0.000	0.0
20110801 23:55	13.3	13.3	13.3	88	11.4	0	0	-100000	0.0	1016.5	0	0.000	0.0



Please note the license to use and transfer of this data:
http://creativecommons.org/licenses/by-nc-sa/3.0/deed.en

Bitte beachten sie die Lizenz zur Verwertung und Weitergabe der Daten:
http://creativecommons.org/licenses/by-nc-sa/3.0/deed.de

zurück zur Übersicht der Archivdaten (Monats und Tagesdaten)

Cookies helfen bei der Bereitstellung von Inhalten. Durch die Nutzung dieser Seiten erklärst du dich damit einverstanden, dass Cookies auf deinem Rechner gespeichert werden. Weitere Information